utilisation pie
utilisation bar
humidity graph
temperature graph
Station id: f3370e for 2 days

start:   stop:  

day time in temp out temp in RH out RH H quota rule action
2020-08-02 00:03:18 21.5 18.1 62 72 95 h 0
2020-08-02 00:33:38 21.3 18.1 62 72 96 h 0
2020-08-02 01:03:51 21.2 18.0 62 72 96 h 0
2020-08-02 01:34:03 21.1 17.8 63 73 96 h 0
2020-08-02 02:04:15 20.9 17.7 63 73 96 h 0
2020-08-02 02:34:27 20.8 17.6 63 73 96 h 0
2020-08-02 03:04:39 20.7 17.6 63 73 96 h 0
2020-08-02 03:34:52 20.6 17.6 63 74 98 h 0
2020-08-02 04:05:04 20.5 17.6 63 75 100 h 0
2020-08-02 04:35:50 20.4 17.7 63 76 102 h 0
2020-08-02 05:06:02 20.3 17.7 64 79 107 h 0
2020-08-02 05:36:17 20.1 17.6 64 82 111 h 0
2020-08-02 06:06:30 20.1 17.6 64 84 113 h 0
2020-08-02 06:36:42 20.0 17.7 65 87 117 h 0
2020-08-02 07:06:54 19.9 17.8 65 87 117 h 0
2020-08-02 07:37:06 19.9 17.7 66 87 117 h 0
2020-08-02 08:07:18 19.8 17.8 66 88 119 h 0
2020-08-02 08:37:30 19.8 18.0 66 88 120 h 0
2020-08-02 09:07:42 19.8 18.6 67 87 122 h 0
2020-08-02 09:37:55 19.9 19.8 67 83 123 h 0
2020-08-02 10:08:07 19.9 20.4 67 79 121 h 0
2020-08-02 10:38:19 20.1 20.2 67 79 119 h 0
2020-08-02 11:08:31 20.1 20.2 68 78 115 h 0
2020-08-02 11:38:43 20.2 20.1 68 78 114 h 0
2020-08-02 12:08:56 20.2 19.9 68 77 111 h 0
2020-08-02 12:39:08 20.2 19.8 68 76 109 h 0
2020-08-02 13:09:20 20.3 19.9 68 75 108 h 0
2020-08-02 13:39:32 20.4 20.1 68 76 110 h 0
2020-08-02 14:09:44 20.4 20.2 68 76 111 h 0
2020-08-02 14:39:56 20.5 19.5 68 78 109 h 0
2020-08-02 15:10:10 20.5 19.7 68 77 108 h 0
2020-08-02 15:40:22 20.6 20.0 68 77 110 h 0
2020-08-02 16:10:34 20.7 20.1 68 75 107 h 0
2020-08-02 16:40:46 21.0 20.8 67 71 105 h 0
2020-08-02 17:10:58 21.2 20.7 67 70 102 h 0
2020-08-02 17:41:10 21.5 20.8 66 69 100 h 0
2020-08-02 18:11:22 21.7 20.7 66 70 100 h 0
2020-08-02 18:41:34 21.1 20.8 64 69 106 h 0
2020-08-02 19:11:46 21.3 20.7 65 70 105 h 0
2020-08-02 19:41:59 21.3 20.1 65 72 103 h 0
2020-08-02 20:12:11 21.1 19.5 66 73 101 h 0
2020-08-02 20:42:23 21.0 19.0 66 74 99 h 0
2020-08-02 21:12:36 20.9 18.5 66 75 98 h 0
2020-08-02 21:42:55 20.9 18.1 66 76 97 h 0
2020-08-02 22:13:07 20.7 17.5 66 77 96 h 0
2020-08-02 22:43:19 20.5 16.7 67 80 96 h 0
2020-08-02 23:13:31 20.4 16.5 67 81 97 h 0
2020-08-02 23:43:43 20.2 16.7 67 84 102 h 0
2020-08-03 00:13:56 20.1 16.8 67 85 105 h 0
2020-08-03 00:44:08 20.0 17.0 67 88 110 h 0
2020-08-03 01:14:20 19.9 17.2 68 87 109 h 0
2020-08-03 01:44:32 19.8 16.9 69 86 106 h 0
2020-08-03 02:14:44 19.6 16.6 68 85 104 h 0
2020-08-03 02:44:56 19.4 16.1 68 84 101 h 0
2020-08-03 03:15:13 19.3 15.7 68 85 101 h 0
2020-08-03 03:45:26 19.2 15.5 67 83 99 h 0
2020-08-03 04:15:38 19.1 15.5 67 82 99 h 0
2020-08-03 04:45:50 18.9 15.2 67 82 98 h 0
2020-08-03 05:16:02 18.8 15.0 66 81 97 h 0
2020-08-03 05:46:14 18.7 14.8 66 82 98 h 0
2020-08-03 06:16:26 18.6 14.9 67 84 101 h 0
2020-08-03 06:46:39 18.5 15.1 67 84 103 h 0
2020-08-03 07:16:51 18.4 15.7 67 83 105 h 0
2020-08-03 07:47:03 18.4 15.7 67 82 105 h 0
2020-08-03 08:17:15 18.4 16.0 67 80 104 h 0
2020-08-03 08:47:27 18.4 16.4 67 79 105 h 0
2020-08-03 09:17:39 18.4 17.3 67 77 108 h 0
2020-08-03 09:47:51 18.5 17.7 67 75 107 h 0
2020-08-03 10:18:04 18.5 18.2 67 73 108 h 0
2020-08-03 10:48:16 18.6 19.2 67 69 107 h 0
2020-08-03 11:18:28 18.8 18.8 66 70 106 h 0
2020-08-03 11:48:40 19.0 19.2 66 68 105 h 0
2020-08-03 12:18:52 19.2 19.5 65 67 105 h 0
2020-08-03 12:49:04 19.6 19.7 66 66 101 h 0


2020-08-03 13:47:21 CEST